createdAt,value
2023-03-06T00:00:45.970Z,3.08
2023-03-06T00:03:12.892Z,3.17
2023-03-06T00:05:40.239Z,3.15
2023-03-06T00:08:07.090Z,3.19
2023-03-06T00:10:34.359Z,3.19
2023-03-06T00:13:05.789Z,3.28
2023-03-06T00:15:32.751Z,3.24
2023-03-06T00:17:59.723Z,3.20
2023-03-06T00:20:27.079Z,3.25
2023-03-06T00:22:56.036Z,3.20
2023-03-06T00:25:23.087Z,3.21
2023-03-06T00:27:50.632Z,3.24
2023-03-06T00:30:23.505Z,3.24
2023-03-06T00:32:50.734Z,3.34
2023-03-06T00:35:17.733Z,3.18
2023-03-06T00:37:44.766Z,3.28
2023-03-06T00:40:18.137Z,3.25
2023-03-06T00:42:45.166Z,3.24
2023-03-06T00:45:12.537Z,3.23
2023-03-06T00:47:40.223Z,3.27
2023-03-06T00:50:07.415Z,3.33
2023-03-06T00:52:34.338Z,3.19
2023-03-06T00:55:02.071Z,3.31
2023-03-06T00:57:28.973Z,3.35
2023-03-06T00:59:57.483Z,3.33
2023-03-06T01:02:24.667Z,3.18
2023-03-06T01:04:54.481Z,3.29
2023-03-06T01:07:21.391Z,3.33
2023-03-06T01:09:48.266Z,3.29
2023-03-06T01:12:15.182Z,3.37
2023-03-06T01:14:41.995Z,3.36
2023-03-06T01:17:10.172Z,3.40
2023-03-06T01:19:37.044Z,3.20
2023-03-06T01:22:04.347Z,3.34
2023-03-06T01:24:31.755Z,3.40
2023-03-06T01:26:58.613Z,3.35
2023-03-06T01:29:26.593Z,3.30
2023-03-06T01:31:53.610Z,3.30
2023-03-06T01:34:20.791Z,3.15
2023-03-06T01:36:47.619Z,3.15
2023-03-06T01:39:14.549Z,3.28
2023-03-06T01:41:41.562Z,3.29
2023-03-06T01:44:11.409Z,3.12
2023-03-06T01:46:43.728Z,3.28
2023-03-06T01:49:19.024Z,3.54
2023-03-06T01:52:00.904Z,3.41
2023-03-06T01:54:34.362Z,3.20
2023-03-06T01:57:05.947Z,3.52
2023-03-06T01:59:35.541Z,3.30
2023-03-06T02:02:04.257Z,3.26
2023-03-06T02:04:31.897Z,3.32
2023-03-06T02:07:04.911Z,3.13
2023-03-06T02:09:35.302Z,3.21
2023-03-06T02:12:03.985Z,3.08
2023-03-06T02:14:30.840Z,3.09
2023-03-06T02:16:58.382Z,3.07
2023-03-06T02:19:32.850Z,3.15
2023-03-06T02:22:00.113Z,3.03
2023-03-06T02:24:40.267Z,3.24
2023-03-06T02:27:08.644Z,2.96
2023-03-06T02:29:35.860Z,3.17
2023-03-06T02:32:04.529Z,3.32
2023-03-06T02:34:37.690Z,3.26
2023-03-06T02:37:09.981Z,3.29
2023-03-06T02:39:43.159Z,3.24
2023-03-06T02:42:11.017Z,3.22
2023-03-06T02:44:37.932Z,3.26
2023-03-06T02:47:05.016Z,3.28
2023-03-06T02:49:31.870Z,3.35
2023-03-06T02:51:58.740Z,3.22
2023-03-06T02:54:25.692Z,3.05
2023-03-06T02:56:52.463Z,3.04
2023-03-06T02:59:19.202Z,3.19
2023-03-06T03:01:47.954Z,3.19
2023-03-06T03:04:14.818Z,3.30
2023-03-06T03:06:41.596Z,3.24
2023-03-06T03:09:08.777Z,3.09
2023-03-06T03:11:35.761Z,3.28
2023-03-06T03:14:02.533Z,3.35
2023-03-06T03:16:30.412Z,3.19
2023-03-06T03:18:58.763Z,3.09
2023-03-06T03:21:26.584Z,3.05
2023-03-06T03:23:54.985Z,2.79
2023-03-06T03:26:22.633Z,3.23
2023-03-06T03:28:57.331Z,3.19
2023-03-06T03:31:24.359Z,3.29
2023-03-06T03:33:51.140Z,2.95
2023-03-06T03:36:19.631Z,3.18
2023-03-06T03:38:47.640Z,3.15
2023-03-06T03:41:14.809Z,3.11
2023-03-06T03:43:42.853Z,3.20
2023-03-06T03:46:10.414Z,2.99
2023-03-06T03:48:37.489Z,2.90
2023-03-06T03:51:08.485Z,2.98
2023-03-06T03:53:38.837Z,2.80
2023-03-06T03:56:06.786Z,2.84
2023-03-06T03:58:38.460Z,2.98
2023-03-06T04:01:05.879Z,2.94
2023-03-06T04:03:32.931Z,2.83
2023-03-06T04:06:00.146Z,2.95
2023-03-06T04:08:27.976Z,2.94
2023-03-06T04:10:55.287Z,3.10
2023-03-06T04:13:24.342Z,2.77
2023-03-06T04:15:54.089Z,2.97
2023-03-06T04:18:23.565Z,3.04
2023-03-06T04:20:52.956Z,3.25
2023-03-06T04:23:21.014Z,3.18
2023-03-06T04:25:47.898Z,3.15
2023-03-06T04:28:14.978Z,3.23
2023-03-06T04:30:42.039Z,3.06
2023-03-06T04:33:09.285Z,3.09
2023-03-06T04:35:37.528Z,3.17
2023-03-06T04:38:09.728Z,3.19
2023-03-06T04:40:36.960Z,2.84
2023-03-06T04:43:04.446Z,3.02
2023-03-06T04:45:32.262Z,3.17
2023-03-06T04:47:59.545Z,3.11
2023-03-06T04:50:28.347Z,3.06
2023-03-06T04:52:55.176Z,3.19
2023-03-06T04:55:21.999Z,2.92
2023-03-06T04:57:49.867Z,3.01
2023-03-06T05:00:22.315Z,3.01
2023-03-06T05:02:49.916Z,2.95
2023-03-06T05:05:17.608Z,2.89
2023-03-06T05:07:44.773Z,3.00
2023-03-06T05:10:13.838Z,3.06
2023-03-06T05:12:40.695Z,2.89
2023-03-06T05:15:09.309Z,2.62
2023-03-06T05:17:36.138Z,2.57
2023-03-06T05:20:06.270Z,2.67
2023-03-06T05:22:34.410Z,2.62
2023-03-06T05:25:01.262Z,2.58
2023-03-06T05:27:28.623Z,2.49
2023-03-06T05:29:55.642Z,2.59
2023-03-06T05:32:22.743Z,2.45
2023-03-06T05:34:50.021Z,2.69
2023-03-06T05:37:16.822Z,2.55
2023-03-06T05:39:43.964Z,2.44
2023-03-06T05:42:10.776Z,2.44
2023-03-06T05:44:38.266Z,2.53
2023-03-06T05:47:05.201Z,2.59
2023-03-06T05:49:33.780Z,2.61
2023-03-06T05:52:01.305Z,2.54
2023-03-06T05:54:28.173Z,2.46
2023-03-06T05:56:57.303Z,2.38
2023-03-06T05:59:28.183Z,2.47
2023-03-06T06:01:55.402Z,2.52
2023-03-06T06:04:23.125Z,2.48
2023-03-06T06:06:58.291Z,2.63
2023-03-06T06:09:26.229Z,2.69
2023-03-06T06:11:55.097Z,2.85
2023-03-06T06:14:21.901Z,2.62
2023-03-06T06:16:49.095Z,2.64
2023-03-06T06:19:18.955Z,2.65
2023-03-06T06:21:50.598Z,2.74
2023-03-06T06:24:19.401Z,2.93
2023-03-06T06:26:46.753Z,2.93
2023-03-06T06:29:13.776Z,2.87
2023-03-06T06:31:41.275Z,2.94
2023-03-06T06:34:09.561Z,3.04
2023-03-06T06:36:36.957Z,2.93
2023-03-06T06:39:04.946Z,2.80
2023-03-06T06:42:02.390Z,2.69
2023-03-06T06:44:19.333Z,2.62
2023-03-06T06:49:34.106Z,2.59
2023-03-06T06:52:01.066Z,2.58
2023-03-06T06:54:28.012Z,2.63
2023-03-06T06:56:57.500Z,2.61
2023-03-06T06:59:24.365Z,2.52
2023-03-06T07:01:51.963Z,2.52
2023-03-06T07:04:19.495Z,2.48
2023-03-06T07:06:46.444Z,2.51
2023-03-06T07:09:13.855Z,2.46
2023-03-06T07:11:41.585Z,2.35
2023-03-06T07:14:08.927Z,2.62
2023-03-06T07:16:35.821Z,2.65
2023-03-06T07:19:03.046Z,2.59
2023-03-06T07:21:30.245Z,2.68
2023-03-06T07:23:57.695Z,2.77
2023-03-06T07:26:28.525Z,2.86
2023-03-06T07:28:55.507Z,2.82
2023-03-06T07:31:24.887Z,2.62
2023-03-06T07:33:53.272Z,2.75
2023-03-06T07:36:21.133Z,2.63
2023-03-06T07:38:48.226Z,2.73
2023-03-06T07:41:16.571Z,2.62
2023-03-06T07:43:45.248Z,2.68
2023-03-06T07:46:15.862Z,2.68
2023-03-06T07:48:43.260Z,2.70
2023-03-06T07:51:21.302Z,2.57
2023-03-06T07:53:49.152Z,2.72
2023-03-06T07:56:16.343Z,2.90
2023-03-06T07:58:45.403Z,2.97
2023-03-06T08:01:14.901Z,2.81
2023-03-06T08:03:41.953Z,2.53
2023-03-06T08:06:12.890Z,2.63
2023-03-06T08:08:40.639Z,2.72
2023-03-06T08:11:08.790Z,2.45
2023-03-06T08:13:35.942Z,2.44
2023-03-06T08:16:03.708Z,2.49
2023-03-06T08:18:30.751Z,2.83
2023-03-06T08:21:14.818Z,2.66
2023-03-06T08:23:41.974Z,2.66
2023-03-06T08:26:17.423Z,2.69
2023-03-06T08:28:44.661Z,2.65
2023-03-06T08:31:12.904Z,2.59
2023-03-06T08:33:40.249Z,2.77
2023-03-06T08:36:07.348Z,2.64
2023-03-06T08:38:34.161Z,2.36
2023-03-06T08:41:01.036Z,2.19
2023-03-06T08:43:28.229Z,2.33
2023-03-06T08:45:56.727Z,2.42
2023-03-06T08:48:23.764Z,2.42
2023-03-06T08:50:50.776Z,2.65
2023-03-06T08:53:18.300Z,2.50
2023-03-06T08:55:45.572Z,2.47
2023-03-06T08:58:12.562Z,2.31
2023-03-06T09:00:39.893Z,2.53
2023-03-06T09:03:06.810Z,2.58
2023-03-06T09:05:33.646Z,2.67
2023-03-06T09:08:00.477Z,2.70
2023-03-06T09:10:27.880Z,2.68
2023-03-06T09:12:55.189Z,2.49
2023-03-06T09:15:23.358Z,2.68
2023-03-06T09:17:51.007Z,2.59
2023-03-06T09:20:18.460Z,2.59
2023-03-06T09:22:48.365Z,2.80
2023-03-06T09:25:20.312Z,2.65
2023-03-06T09:27:55.421Z,3.03
2023-03-06T09:30:29.392Z,3.13
2023-03-06T09:32:56.716Z,3.08
2023-03-06T09:35:23.619Z,3.01
2023-03-06T09:37:50.452Z,2.81
2023-03-06T09:40:36.700Z,2.48
2023-03-06T09:43:03.586Z,2.86
2023-03-06T09:45:30.854Z,2.99
2023-03-06T09:48:13.884Z,2.92
2023-03-06T09:50:46.016Z,3.10
2023-03-06T09:53:36.166Z,2.79
2023-03-06T09:56:18.373Z,2.35
2023-03-06T09:58:57.649Z,2.09
2023-03-06T10:01:25.668Z,1.94
2023-03-06T10:04:17.385Z,1.86
2023-03-06T10:06:49.607Z,1.94
2023-03-06T10:09:23.604Z,2.07
2023-03-06T10:11:57.387Z,2.11
2023-03-06T10:14:48.891Z,2.23
2023-03-06T10:17:19.598Z,2.32
2023-03-06T10:19:49.897Z,2.45
2023-03-06T10:22:35.335Z,2.70
2023-03-06T10:25:20.261Z,2.84
2023-03-06T10:27:48.020Z,3.07
2023-03-06T10:30:20.893Z,2.74
2023-03-06T10:32:58.812Z,2.98
2023-03-06T10:35:33.578Z,3.14
2023-03-06T10:38:32.946Z,2.94
2023-03-06T10:41:05.686Z,2.50
2023-03-06T10:43:36.177Z,2.80
2023-03-06T10:46:03.922Z,2.94
2023-03-06T10:48:35.909Z,2.83
2023-03-06T10:51:23.999Z,2.64
2023-03-06T10:53:53.614Z,2.76
2023-03-06T10:56:34.658Z,2.73
2023-03-06T10:59:21.602Z,2.71
2023-03-06T11:01:57.418Z,2.68
2023-03-06T11:04:30.483Z,3.02
2023-03-06T11:07:06.436Z,3.06
2023-03-06T11:09:33.838Z,3.18
2023-03-06T11:12:21.453Z,3.06
2023-03-06T11:15:10.095Z,3.51
2023-03-06T11:17:48.926Z,3.63
2023-03-06T11:20:20.417Z,3.85
2023-03-06T11:23:07.454Z,4.04
2023-03-06T11:25:43.706Z,3.96
2023-03-06T11:28:26.416Z,3.78
2023-03-06T11:30:59.041Z,3.53
2023-03-06T11:33:29.719Z,3.43
2023-03-06T11:36:14.711Z,3.49
2023-03-06T11:38:52.771Z,3.66
2023-03-06T11:41:37.956Z,3.50
2023-03-06T11:44:29.495Z,3.80
2023-03-06T11:47:17.859Z,3.63
2023-03-06T11:49:49.314Z,3.79
2023-03-06T11:52:22.228Z,3.88
2023-03-06T11:54:55.491Z,4.10
2023-03-06T11:57:35.574Z,4.09
2023-03-06T12:00:20.873Z,4.51
2023-03-06T12:03:05.897Z,4.41
2023-03-06T12:05:37.160Z,4.52
2023-03-06T12:08:25.708Z,4.33
2023-03-06T12:11:20.165Z,3.72
2023-03-06T12:13:56.297Z,2.74
2023-03-06T12:16:39.295Z,2.56
2023-03-06T12:19:12.067Z,1.95
2023-03-06T12:22:01.430Z,1.55
2023-03-06T12:24:50.326Z,1.38
2023-03-06T12:27:25.852Z,1.53
2023-03-06T12:29:59.608Z,1.40
2023-03-06T12:32:36.759Z,1.47
2023-03-06T12:35:42.275Z,1.55
2023-03-06T12:38:27.163Z,1.44
2023-03-06T12:41:05.194Z,1.69
2023-03-06T12:43:53.711Z,1.82
2023-03-06T12:46:25.688Z,1.98
2023-03-06T12:49:32.694Z,1.87
2023-03-06T12:52:01.324Z,1.74
2023-03-06T12:54:35.531Z,1.45
2023-03-06T12:57:02.869Z,1.65
2023-03-06T12:59:42.498Z,1.59
2023-03-06T13:02:28.076Z,2.51
2023-03-06T13:05:38.142Z,3.21
2023-03-06T13:08:04.952Z,3.57
2023-03-06T13:10:36.383Z,3.86
2023-03-06T13:13:25.055Z,4.04
2023-03-06T13:16:03.878Z,4.19
2023-03-06T13:18:33.543Z,3.95
2023-03-06T13:21:00.405Z,4.36
2023-03-06T13:23:33.390Z,3.93
2023-03-06T13:26:05.284Z,4.13
2023-03-06T13:28:54.099Z,4.49
2023-03-06T13:31:28.760Z,4.93
2023-03-06T13:34:26.547Z,5.43
2023-03-06T13:36:53.351Z,5.57
2023-03-06T13:39:20.161Z,5.41
2023-03-06T13:41:54.126Z,4.06
2023-03-06T13:44:23.801Z,3.58
2023-03-06T13:47:02.316Z,4.03
2023-03-06T13:49:29.662Z,5.07
2023-03-06T13:51:56.479Z,5.88
2023-03-06T13:54:41.978Z,5.31
2023-03-06T13:57:32.567Z,4.88
2023-03-06T14:00:28.437Z,5.78
2023-03-06T14:03:15.533Z,6.50
2023-03-06T14:05:50.068Z,5.50
2023-03-06T14:08:24.991Z,4.70
2023-03-06T14:11:21.608Z,4.68
2023-03-06T14:13:56.084Z,5.00
2023-03-06T14:16:32.716Z,4.62
2023-03-06T14:19:04.480Z,4.23
2023-03-06T14:21:53.653Z,3.62
2023-03-06T14:24:29.416Z,3.96
2023-03-06T14:26:56.305Z,4.37
2023-03-06T14:29:25.677Z,3.71
2023-03-06T14:31:54.328Z,4.24
2023-03-06T14:34:21.981Z,5.47
2023-03-06T14:37:02.685Z,5.94
2023-03-06T14:39:42.387Z,5.84
2023-03-06T14:42:24.835Z,7.04
2023-03-06T14:45:15.986Z,6.97
2023-03-06T14:47:43.351Z,6.55
2023-03-06T14:50:27.790Z,7.13
2023-03-06T14:53:05.947Z,7.40
2023-03-06T14:55:35.458Z,8.36
2023-03-06T14:58:15.732Z,6.63
2023-03-06T15:00:45.109Z,5.58
2023-03-06T15:03:38.884Z,5.07
2023-03-06T15:06:06.078Z,5.06
2023-03-06T15:08:35.135Z,4.73
2023-03-06T15:11:04.573Z,4.09
2023-03-06T15:13:33.167Z,5.30
2023-03-06T15:16:06.528Z,6.65
2023-03-06T15:18:36.287Z,8.05
2023-03-06T15:21:07.900Z,8.06
2023-03-06T15:23:39.637Z,6.50
2023-03-06T15:26:29.161Z,6.26
2023-03-06T15:29:22.187Z,6.19
2023-03-06T15:31:49.361Z,7.09
2023-03-06T15:34:23.693Z,7.77
2023-03-06T15:36:54.380Z,8.39
2023-03-06T15:39:41.265Z,8.75
2023-03-06T15:42:21.674Z,6.42
2023-03-06T15:44:54.139Z,5.80
2023-03-06T15:47:22.148Z,5.07
2023-03-06T15:49:53.343Z,4.55
2023-03-06T15:52:23.707Z,6.41
2023-03-06T15:54:50.594Z,5.34
2023-03-06T15:57:29.420Z,5.02
2023-03-06T15:59:56.732Z,5.26
2023-03-06T16:02:24.454Z,6.47
2023-03-06T16:04:51.979Z,6.38
2023-03-06T16:07:18.806Z,5.97
2023-03-06T16:09:45.773Z,5.11
2023-03-06T16:12:18.619Z,4.73
2023-03-06T16:14:47.717Z,4.51
2023-03-06T16:17:15.012Z,3.85
2023-03-06T16:19:41.975Z,4.24
2023-03-06T16:22:08.855Z,3.81
2023-03-06T16:24:35.688Z,3.34
2023-03-06T16:27:02.853Z,3.18
2023-03-06T16:29:30.568Z,3.45
2023-03-06T16:31:58.851Z,3.35
2023-03-06T16:34:26.094Z,3.23
2023-03-06T16:36:53.031Z,3.15
2023-03-06T16:39:21.973Z,3.36
2023-03-06T16:41:50.410Z,3.11
2023-03-06T16:44:17.491Z,3.12
2023-03-06T16:46:47.606Z,2.87
2023-03-06T16:49:24.148Z,2.64
2023-03-06T16:51:52.122Z,2.61
2023-03-06T16:54:19.622Z,2.35
2023-03-06T16:56:46.457Z,2.40
2023-03-06T16:59:13.499Z,1.88
2023-03-06T17:01:43.440Z,2.08
2023-03-06T17:04:11.012Z,2.08
2023-03-06T17:06:38.480Z,1.87
2023-03-06T17:09:05.448Z,1.92
2023-03-06T17:11:32.401Z,1.94
2023-03-06T17:13:59.499Z,1.76
2023-03-06T17:16:26.871Z,1.58
2023-03-06T17:18:55.179Z,1.67
2023-03-06T17:21:22.131Z,1.64
2023-03-06T17:23:50.932Z,1.73
2023-03-06T17:26:18.996Z,1.75
2023-03-06T17:28:46.716Z,1.82
2023-03-06T17:31:17.935Z,1.43
2023-03-06T17:33:45.588Z,1.37
2023-03-06T17:36:14.773Z,1.85
2023-03-06T17:38:42.304Z,1.76
2023-03-06T17:41:09.941Z,1.80
2023-03-06T17:43:37.569Z,1.92
2023-03-06T17:46:09.506Z,1.97
2023-03-06T17:48:36.657Z,1.98
2023-03-06T17:51:04.387Z,1.56
2023-03-06T17:53:31.689Z,1.33
2023-03-06T17:55:58.632Z,1.33
2023-03-06T17:58:26.566Z,1.16
2023-03-06T18:00:53.750Z,1.44
2023-03-06T18:03:20.809Z,1.31
2023-03-06T18:05:47.911Z,1.28
2023-03-06T18:08:14.878Z,1.15
2023-03-06T18:10:42.046Z,1.18
2023-03-06T18:13:10.337Z,1.09
2023-03-06T18:15:41.332Z,1.08
2023-03-06T18:18:08.966Z,1.22
2023-03-06T18:20:41.155Z,1.18
2023-03-06T18:23:08.212Z,1.00
2023-03-06T18:25:35.668Z,0.96
2023-03-06T18:28:02.492Z,0.93
2023-03-06T18:30:29.392Z,0.90
2023-03-06T18:32:56.341Z,0.80
2023-03-06T18:35:23.251Z,0.83
2023-03-06T18:37:50.589Z,0.98
2023-03-06T18:40:17.472Z,0.95
2023-03-06T18:42:44.329Z,1.32
2023-03-06T18:45:12.868Z,1.15
2023-03-06T18:47:40.336Z,1.24
2023-03-06T18:50:07.688Z,1.33
2023-03-06T18:52:34.926Z,1.59
2023-03-06T18:55:01.762Z,1.51
2023-03-06T18:57:30.316Z,1.31
2023-03-06T18:59:57.423Z,0.90
2023-03-06T19:02:24.290Z,0.94
2023-03-06T19:04:53.027Z,0.78
2023-03-06T19:07:19.858Z,0.75
2023-03-06T19:09:48.551Z,0.55
2023-03-06T19:12:15.757Z,0.64
2023-03-06T19:14:42.719Z,0.75
2023-03-06T19:17:09.616Z,0.67
2023-03-06T19:19:36.464Z,0.66
2023-03-06T19:22:03.347Z,0.73
2023-03-06T19:24:30.138Z,0.63
2023-03-06T19:26:57.003Z,0.75
2023-03-06T19:29:23.822Z,0.53
2023-03-06T19:31:52.277Z,0.52
2023-03-06T19:34:19.185Z,0.50
2023-03-06T19:36:46.074Z,0.55
2023-03-06T19:39:12.888Z,0.67
2023-03-06T19:41:39.755Z,0.61
2023-03-06T19:44:06.674Z,0.74
2023-03-06T19:46:34.592Z,0.78
2023-03-06T19:49:03.057Z,0.94
2023-03-06T19:51:30.078Z,1.02
2023-03-06T19:53:57.684Z,0.67
2023-03-06T19:56:26.979Z,0.60
2023-03-06T19:58:53.943Z,0.50
2023-03-06T20:01:23.112Z,0.50
2023-03-06T20:03:50.747Z,0.53
2023-03-06T20:06:19.444Z,0.40
2023-03-06T20:08:47.426Z,0.46
2023-03-06T20:11:22.022Z,0.42
2023-03-06T20:13:49.249Z,0.32
2023-03-06T20:16:17.705Z,0.53
2023-03-06T20:18:44.615Z,0.71
2023-03-06T20:21:13.365Z,0.66
2023-03-06T20:23:40.431Z,0.81
2023-03-06T20:26:09.789Z,0.51
2023-03-06T20:28:38.589Z,0.59
2023-03-06T20:31:11.316Z,0.54
2023-03-06T20:33:38.198Z,0.79
2023-03-06T20:36:11.425Z,0.71
2023-03-06T20:38:39.140Z,0.63
2023-03-06T20:41:06.045Z,0.84
2023-03-06T20:43:32.891Z,0.92
2023-03-06T20:46:01.753Z,0.67
2023-03-06T20:48:29.230Z,0.80
2023-03-06T20:51:03.862Z,1.05
2023-03-06T20:53:30.947Z,0.60
2023-03-06T20:55:57.810Z,0.50
2023-03-06T20:58:28.651Z,0.75
2023-03-06T21:00:55.362Z,0.80
2023-03-06T21:03:22.201Z,0.62
2023-03-06T21:05:49.171Z,0.60
2023-03-06T21:08:16.373Z,0.87
2023-03-06T21:10:45.954Z,0.61
2023-03-06T21:13:13.113Z,0.51
2023-03-06T21:15:43.144Z,0.43
2023-03-06T21:18:11.135Z,0.70
2023-03-06T21:20:39.474Z,0.43
2023-03-06T21:23:07.280Z,0.52
2023-03-06T21:25:34.531Z,0.43
2023-03-06T21:28:01.980Z,0.59
2023-03-06T21:30:29.554Z,0.64
2023-03-06T21:32:56.360Z,0.68
2023-03-06T21:35:23.235Z,0.59
2023-03-06T21:37:50.010Z,0.44
2023-03-06T21:40:17.485Z,0.52
2023-03-06T21:42:44.266Z,0.55
2023-03-06T21:45:12.074Z,0.39
2023-03-06T21:47:40.845Z,0.49
2023-03-06T21:50:09.302Z,0.14
2023-03-06T21:52:36.192Z,0.33
2023-03-06T21:55:03.005Z,0.28
2023-03-06T21:57:29.885Z,0.18
2023-03-06T21:59:56.664Z,-0.02
2023-03-06T22:02:23.462Z,-0.10
2023-03-06T22:04:52.271Z,0.10
2023-03-06T22:07:20.076Z,-0.13
2023-03-06T22:09:47.090Z,0.06
2023-03-06T22:12:13.995Z,0.10
2023-03-06T22:14:43.556Z,0.23
2023-03-06T22:17:10.473Z,0.21
2023-03-06T22:19:37.297Z,0.12
2023-03-06T22:22:04.607Z,0.16
2023-03-06T22:24:32.055Z,0.26
2023-03-06T22:26:59.259Z,0.49
2023-03-06T22:29:26.414Z,0.22
2023-03-06T22:31:53.414Z,0.34
2023-03-06T22:34:20.402Z,0.25
2023-03-06T22:36:48.239Z,0.55
2023-03-06T22:39:15.217Z,0.23
2023-03-06T22:41:42.022Z,0.21
2023-03-06T22:44:15.723Z,0.05
2023-03-06T22:46:42.848Z,-0.11
2023-03-06T22:49:11.561Z,-0.05
2023-03-06T22:51:39.492Z,-0.28
2023-03-06T22:54:07.581Z,-0.49
2023-03-06T22:56:34.691Z,-0.42
2023-03-06T22:59:01.903Z,-0.52
2023-03-06T23:01:30.668Z,-0.52
2023-03-06T23:04:00.009Z,-0.63
2023-03-06T23:06:32.002Z,-0.72
2023-03-06T23:09:14.390Z,-0.64
2023-03-06T23:12:01.787Z,-0.80
2023-03-06T23:14:51.175Z,-0.65
2023-03-06T23:17:37.582Z,-0.71
2023-03-06T23:20:23.336Z,-0.72
2023-03-06T23:23:09.178Z,-0.80
2023-03-06T23:25:43.642Z,-0.72
2023-03-06T23:28:10.950Z,-0.69
2023-03-06T23:30:39.483Z,-0.56
2023-03-06T23:33:06.561Z,-0.71
2023-03-06T23:35:34.792Z,-0.67
2023-03-06T23:38:02.619Z,-0.68
2023-03-06T23:40:31.715Z,-0.42
2023-03-06T23:42:58.567Z,-0.30
2023-03-06T23:45:25.509Z,-0.34
2023-03-06T23:47:52.348Z,-0.41
2023-03-06T23:50:19.476Z,-0.11
2023-03-06T23:52:46.434Z,-0.45
2023-03-06T23:55:13.320Z,-0.28
2023-03-06T23:57:40.208Z,-0.27
